Time;durP1;ratioP1;P1;durP2;ratioP2;P2;SDS_P1;SDS_P2;PMS_P1;PMS_P2;Temp;Humidity;BMP_temperature;BMP_pressure;BME280_temperature;BME280_humidity;BME280_pressure;Samples;Min_cycle;Max_cycle;Signal;HPM_P1;HPM_P2
2023/06/21 00:00:32;;;;;;;9.85;6.38;;;22.10;77.20;;;21.47;100.00;95853.69;4990315;28;20057;-67
2023/06/21 00:03:01;;;;;;;9.20;7.07;;;22.10;77.10;;;21.44;100.00;95853.41;4991258;28;20112;-66
2023/06/21 00:05:27;;;;;;;11.95;7.35;;;22.10;77.50;;;21.39;100.00;95849.66;4972237;28;20023;-67
2023/06/21 00:07:54;;;;;;;12.32;7.53;;;22.10;77.70;;;21.39;100.00;95857.69;4971071;28;20034;-67
2023/06/21 00:10:23;;;;;;;12.95;6.85;;;22.10;77.90;;;21.40;100.00;95856.59;4972580;28;20592;-67
2023/06/21 00:12:50;;;;;;;12.50;7.07;;;22.10;77.80;;;21.39;100.00;95841.63;4986080;28;20038;-67
2023/06/21 00:15:16;;;;;;;8.93;7.03;;;22.10;77.90;;;21.42;100.00;95839.47;4975168;28;20034;-67
2023/06/21 00:17:41;;;;;;;13.35;7.57;;;22.20;78.20;;;21.38;100.00;95823.97;4974407;28;20124;-67
2023/06/21 00:20:10;;;;;;;10.55;7.13;;;22.10;77.90;;;21.36;100.00;95839.47;4987339;28;20069;-67
2023/06/21 00:22:36;;;;;;;10.55;6.90;;;22.10;78.10;;;21.35;100.00;95835.19;4973045;28;20039;-68
2023/06/21 00:25:02;;;;;;;15.30;7.75;;;22.10;78.20;;;21.36;100.00;95839.47;4990465;28;20095;-68
2023/06/21 00:27:28;;;;;;;11.73;7.10;;;22.10;78.20;;;21.37;100.00;95840.28;4974387;28;20586;-67
2023/06/21 00:29:54;;;;;;;14.05;7.10;;;22.20;78.20;;;21.38;100.00;95853.38;4972753;28;20054;-68
2023/06/21 00:32:20;;;;;;;11.88;6.50;;;22.10;78.30;;;21.39;100.00;95856.88;4972709;28;20521;-67
2023/06/21 00:34:47;;;;;;;10.80;7.38;;;22.20;78.30;;;21.36;100.00;95858.19;4974201;28;20030;-67
2023/06/21 00:37:13;;;;;;;11.57;6.68;;;22.10;77.60;;;21.34;100.00;95864.88;4990154;28;20387;-67
2023/06/21 00:39:39;;;;;;;11.95;7.00;;;22.10;78.20;;;21.30;100.00;95863.81;4983145;28;20030;-67
2023/06/21 00:42:06;;;;;;;10.07;6.97;;;22.00;78.60;;;21.26;100.00;95871.53;4971123;28;20118;-67
2023/06/21 00:44:32;;;;;;;12.73;8.27;;;22.00;78.60;;;21.24;100.00;95875.53;4971154;28;20042;-67
2023/06/21 00:46:57;;;;;;;10.27;7.18;;;21.90;78.50;;;21.25;100.00;95877.13;4969591;28;20030;-67
2023/06/21 00:49:23;;;;;;;11.80;7.65;;;22.00;78.50;;;21.23;100.00;95888.06;4976844;28;21508;-67
2023/06/21 00:51:49;;;;;;;11.35;7.28;;;21.90;78.70;;;21.23;100.00;95887.28;4968319;28;20030;-67
2023/06/21 00:54:18;;;;;;;10.45;6.70;;;21.90;78.30;;;21.19;100.00;95884.31;4973557;28;20061;-67
2023/06/21 00:56:44;;;;;;;9.77;7.07;;;21.90;78.60;;;21.15;100.00;95893.13;4973366;28;20031;-67
2023/06/21 00:59:10;;;;;;;13.70;7.70;;;21.90;78.60;;;21.13;100.00;95890.72;4970320;28;20113;-67
2023/06/21 01:01:37;;;;;;;11.73;6.90;;;21.80;78.30;;;21.13;100.00;95896.06;4956792;28;20045;-67
2023/06/21 01:04:04;;;;;;;9.60;6.72;;;21.80;77.90;;;21.12;100.00;95899.81;4973049;28;20410;-67
2023/06/21 01:06:52;;;;;;;12.90;6.68;;;21.80;77.80;;;21.10;100.00;95907.28;4973355;28;20564;-67
2023/06/21 01:09:40;;;;;;;11.50;6.30;;;21.80;77.20;;;21.06;100.00;95906.19;4989268;28;20134;-67
2023/06/21 01:12:30;;;;;;;9.73;6.45;;;21.70;77.70;;;21.03;100.00;95906.69;4975511;28;20030;-67
2023/06/21 01:15:03;;;;;;;13.02;6.30;;;21.70;78.40;;;20.95;100.00;95904.53;4991765;28;20070;-67
2023/06/21 01:17:32;;;;;;;9.93;6.22;;;21.70;78.10;;;20.90;100.00;95902.63;4974469;28;20510;-66
2023/06/21 01:19:58;;;;;;;12.30;6.07;;;21.60;77.90;;;20.88;100.00;95901.28;4969186;28;20077;-67
2023/06/21 01:22:53;;;;;;;11.00;6.28;;;21.60;77.80;;;20.86;100.00;95906.88;4956512;28;20471;-67
2023/06/21 01:25:45;;;;;;;13.75;6.25;;;21.60;77.40;;;20.84;100.00;95908.22;4987407;28;20031;-66
2023/06/21 01:28:38;;;;;;;11.73;6.20;;;21.60;77.60;;;20.78;100.00;95908.16;5005976;28;20517;-67
2023/06/21 01:31:04;;;;;;;11.00;6.50;;;21.50;78.10;;;20.69;100.00;95915.06;5005821;28;20590;-67
2023/06/21 01:33:31;;;;;;;12.05;5.82;;;21.40;78.30;;;20.67;100.00;95913.72;4993461;28;20029;-67
2023/06/21 01:35:58;;;;;;;15.43;6.05;;;21.40;78.30;;;20.54;100.00;95904.25;4968657;28;20027;-66
2023/06/21 01:38:24;;;;;;;10.07;5.25;;;21.30;78.40;;;20.48;100.00;95905.28;4988794;28;20490;-67
2023/06/21 01:40:50;;;;;;;11.85;5.97;;;21.20;77.90;;;20.47;100.00;95911.69;4957277;28;20077;-67
2023/06/21 01:43:17;;;;;;;12.32;6.50;;;21.20;77.90;;;20.47;100.00;95912.50;4971638;28;20042;-67
2023/06/21 01:45:42;;;;;;;11.23;5.75;;;21.20;77.40;;;20.46;100.00;95908.22;4954055;28;20053;-68
2023/06/21 01:48:08;;;;;;;10.27;6.32;;;21.10;77.80;;;20.41;100.00;95905.50;4972622;28;20034;-67
2023/06/21 01:50:35;;;;;;;13.70;6.53;;;21.10;77.80;;;20.36;100.00;95905.41;4941185;28;20058;-67
2023/06/21 01:53:00;;;;;;;10.50;6.10;;;21.10;78.10;;;20.29;100.00;95904.03;4973165;28;20129;-67
2023/06/21 01:55:26;;;;;;;10.27;5.93;;;21.00;78.40;;;20.22;100.00;95904.25;4972496;28;20122;-67
2023/06/21 01:57:52;;;;;;;12.55;6.22;;;20.90;78.40;;;20.16;100.00;95898.06;4953328;28;20050;-68
2023/06/21 02:00:21;;;;;;;14.68;6.32;;;20.90;78.50;;;20.14;100.00;95897.50;4971829;28;20506;-68
2023/06/21 02:02:55;;;;;;;12.95;6.25;;;20.80;78.50;;;20.14;100.00;95905.53;4941137;28;20100;-68
2023/06/21 02:05:21;;;;;;;12.95;6.47;;;20.90;78.60;;;20.13;100.00;95911.91;4971073;28;20030;-68
2023/06/21 02:07:48;;;;;;;13.48;6.20;;;20.80;78.60;;;20.13;100.00;95909.22;4972448;28;20027;-67
2023/06/21 02:10:18;;;;;;;10.88;6.43;;;20.90;78.60;;;20.11;100.00;95916.69;4953818;28;20058;-67
2023/06/21 02:12:47;;;;;;;12.82;6.57;;;20.90;78.60;;;20.06;100.00;95916.66;4970815;28;20031;-68
2023/06/21 02:15:13;;;;;;;12.48;6.65;;;20.80;78.80;;;20.01;100.00;95921.94;4971724;28;20462;-67
2023/06/21 02:17:39;;;;;;;12.48;5.75;;;20.70;79.10;;;19.98;100.00;95929.66;4940075;28;20039;-67
2023/06/21 02:20:12;;;;;;;12.75;6.15;;;20.70;79.20;;;19.95;100.00;95932.84;4985057;28;20042;-68
2023/06/21 02:22:42;;;;;;;14.50;6.25;;;20.70;79.10;;;19.92;100.00;95920.00;4988193;28;20061;-67
2023/06/21 02:25:12;;;;;;;10.93;5.50;;;20.70;79.30;;;19.93;100.00;95919.75;4972449;28;20034;-68
2023/06/21 02:27:38;;;;;;;13.38;6.28;;;20.70;79.30;;;19.94;100.00;95933.91;4970354;28;20043;-67
2023/06/21 02:30:05;;;;;;;12.90;6.50;;;20.70;79.10;;;19.90;100.00;95925.56;4988978;28;20094;-67
2023/06/21 02:32:30;;;;;;;14.05;6.47;;;20.70;79.30;;;19.93;100.00;95946.44;4972184;28;20026;-67
2023/06/21 02:34:56;;;;;;;14.38;6.35;;;20.70;79.00;;;19.93;100.00;95948.31;4988163;28;20062;-68
2023/06/21 02:37:22;;;;;;;15.30;6.30;;;20.70;79.10;;;19.91;100.00;95948.53;4986921;28;20039;-67
2023/06/21 02:39:48;;;;;;;13.55;6.28;;;20.70;79.30;;;19.90;100.00;95946.91;4970897;28;20037;-68
2023/06/21 02:42:14;;;;;;;10.75;5.95;;;20.70;79.40;;;19.89;100.00;95946.09;4984741;28;20035;-68
2023/06/21 02:44:41;;;;;;;9.98;5.95;;;20.70;79.50;;;19.87;100.00;95944.75;4972337;28;20049;-68
2023/06/21 02:47:07;;;;;;;14.00;6.32;;;20.60;79.70;;;19.86;100.00;95940.47;4990557;28;20050;-70
2023/06/21 02:49:36;;;;;;;10.18;6.50;;;20.70;79.60;;;19.85;100.00;95938.84;4958051;28;20031;-68
2023/06/21 02:52:03;;;;;;;11.52;5.95;;;20.60;79.60;;;19.82;100.00;95950.03;4973528;28;20062;-67
2023/06/21 02:54:29;;;;;;;13.32;6.30;;;20.60;79.70;;;19.77;100.00;95952.66;4991484;28;20042;-69
2023/06/21 02:56:55;;;;;;;9.43;6.25;;;20.60;79.70;;;19.76;100.00;95953.72;4990774;28;20514;-67
2023/06/21 02:59:20;;;;;;;13.52;6.32;;;20.60;79.40;;;19.72;100.00;95945.41;4991686;28;20085;-67
2023/06/21 03:01:47;;;;;;;12.10;6.22;;;20.60;79.60;;;19.69;100.00;95950.41;4974035;28;20046;-67
2023/06/21 03:04:17;;;;;;;12.45;6.15;;;20.60;79.00;;;19.67;100.00;95944.53;4975609;28;20473;-67
2023/06/21 03:06:43;;;;;;;12.90;6.67;;;20.50;78.90;;;19.56;100.00;95947.09;4975731;28;20561;-67
2023/06/21 03:09:11;;;;;;;10.82;6.15;;;20.30;79.10;;;19.52;100.00;95951.28;4988434;28;20282;-67
2023/06/21 03:11:37;;;;;;;12.45;6.18;;;20.30;79.20;;;19.48;100.00;95950.16;4990099;28;20038;-68
2023/06/21 03:14:03;;;;;;;17.85;6.22;;;20.30;79.10;;;19.47;100.00;95948.56;4991791;28;20038;-67
2023/06/21 03:16:30;;;;;;;33.08;26.27;;;20.30;79.00;;;19.44;100.00;95959.69;4973895;28;20177;-66
2023/06/21 03:18:55;;;;;;;23.80;16.55;;;20.30;79.40;;;19.42;100.00;95961.00;4974578;28;20030;-67
2023/06/21 03:21:22;;;;;;;14.23;9.52;;;20.20;79.60;;;19.41;100.00;95965.53;4973439;28;20406;-67
2023/06/21 03:23:48;;;;;;;13.23;6.80;;;20.20;79.60;;;19.41;100.00;95965.53;4967145;28;20038;-68
2023/06/21 03:26:14;;;;;;;16.23;8.68;;;20.20;79.60;;;19.39;100.00;95967.66;4975019;28;20080;-68
2023/06/21 03:28:41;;;;;;;16.60;8.85;;;20.20;79.60;;;19.37;100.00;95959.09;4959472;28;20398;-68
2023/06/21 03:31:07;;;;;;;18.05;13.30;;;20.20;79.70;;;19.35;100.00;95963.88;5003949;28;20026;-68
2023/06/21 03:33:32;;;;;;;11.85;8.73;;;20.20;79.70;;;19.35;100.00;95971.06;4996413;28;20038;-68
2023/06/21 03:35:58;;;;;;;13.25;9.25;;;20.20;79.80;;;19.32;100.00;95975.03;4994016;28;20038;-68
2023/06/21 03:38:24;;;;;;;16.50;8.23;;;20.10;80.30;;;19.32;100.00;95979.56;5011588;28;20038;-68
2023/06/21 03:40:50;;;;;;;18.67;8.30;;;20.20;80.30;;;19.30;100.00;95984.34;4993611;28;20410;-69
2023/06/21 03:43:15;;;;;;;12.38;7.32;;;20.10;80.40;;;19.28;100.00;95984.59;5004896;28;20054;-68
2023/06/21 03:45:42;;;;;;;11.27;7.05;;;20.10;80.60;;;19.29;100.00;95988.88;4988590;28;20026;-68
2023/06/21 03:48:08;;;;;;;14.23;7.15;;;20.10;80.90;;;19.31;100.00;95989.41;4994499;28;20057;-72
2023/06/21 03:50:33;;;;;;;13.77;7.03;;;20.20;81.00;;;19.32;100.00;95988.38;5007812;28;20646;-70
2023/06/21 03:53:00;;;;;;;9.82;7.35;;;20.20;81.20;;;19.33;100.00;95989.97;5008740;28;20041;-68
2023/06/21 03:55:25;;;;;;;11.90;9.70;;;20.20;81.20;;;19.33;100.00;95989.16;5008747;28;20100;-68
2023/06/21 03:57:51;;;;;;;12.10;7.80;;;20.30;81.00;;;19.35;100.00;95998.53;5009051;28;20498;-68
2023/06/21 04:00:17;;;;;;;13.13;8.25;;;20.30;81.00;;;19.36;100.00;95999.34;4993655;28;20041;-68
2023/06/21 04:02:43;;;;;;;14.73;8.63;;;20.40;81.00;;;19.36;100.00;96000.16;4994491;28;20088;-68
2023/06/21 04:05:10;;;;;;;12.85;8.02;;;20.30;81.10;;;19.37;100.00;96001.75;5010318;28;20034;-68
2023/06/21 04:07:37;;;;;;;20.10;11.35;;;20.30;81.00;;;19.39;100.00;95996.97;4993651;28;20498;-68
2023/06/21 04:10:03;;;;;;;12.15;8.82;;;20.40;80.90;;;19.40;100.00;95998.59;4992923;28;20121;-67
2023/06/21 04:12:30;;;;;;;18.33;8.18;;;20.40;80.90;;;19.41;100.00;95999.41;5007413;28;20313;-67
2023/06/21 04:14:57;;;;;;;11.35;8.52;;;20.40;81.00;;;19.41;100.00;96008.22;5011458;28;20041;-67
2023/06/21 04:17:23;;;;;;;14.82;8.32;;;20.40;80.90;;;19.42;100.00;96004.50;5010076;28;20512;-67
2023/06/21 04:19:48;;;;;;;15.50;8.65;;;20.40;81.00;;;19.43;100.00;95994.63;5009793;28;20022;-66
2023/06/21 04:22:14;;;;;;;13.80;8.63;;;20.50;80.90;;;19.44;100.00;95997.03;4974152;28;20453;-67
2023/06/21 04:24:40;;;;;;;11.10;7.95;;;20.50;80.80;;;19.45;100.00;96009.34;5011088;28;20038;-66
2023/06/21 04:27:06;;;;;;;12.85;8.68;;;20.40;80.90;;;19.46;100.00;96000.31;5010334;28;20465;-66
2023/06/21 04:29:39;;;;;;;13.38;8.63;;;20.40;80.70;;;19.48;100.00;95998.19;5009857;28;20046;-67
2023/06/21 04:32:05;;;;;;;15.73;8.50;;;20.50;80.70;;;19.51;100.00;96003.03;5008362;28;20040;-66
2023/06/21 04:34:33;;;;;;;12.20;8.52;;;20.60;80.60;;;19.55;100.00;96003.38;5008890;28;20034;-66
2023/06/21 04:36:58;;;;;;;15.07;8.68;;;20.60;80.70;;;19.60;100.00;96005.28;5010937;28;20026;-66
2023/06/21 04:39:24;;;;;;;17.63;8.25;;;20.70;80.40;;;19.63;100.00;96005.59;5010751;28;20655;-66
2023/06/21 04:41:52;;;;;;;16.50;8.27;;;20.70;80.20;;;19.65;100.00;96003.47;5009384;28;20044;-67
2023/06/21 04:44:17;;;;;;;12.20;7.97;;;20.80;80.00;;;19.71;100.00;96017.72;5005867;28;20566;-67
2023/06/21 04:46:46;;;;;;;11.15;8.05;;;20.80;79.80;;;19.76;100.00;96009.75;4993588;28;20124;-67
2023/06/21 04:49:12;;;;;;;10.27;8.15;;;20.90;79.70;;;19.81;100.00;96015.16;4990001;28;20026;-67
2023/06/21 04:51:38;;;;;;;20.15;8.98;;;21.00;79.50;;;19.84;100.00;96012.78;5008433;28;20048;-67
2023/06/21 04:54:06;;;;;;;15.35;8.43;;;21.00;79.00;;;19.87;100.00;96011.47;5009552;28;20506;-67
2023/06/21 04:56:31;;;;;;;11.98;8.05;;;21.00;79.00;;;19.93;100.00;96015.84;5008087;28;20034;-67
2023/06/21 04:58:57;;;;;;;12.43;7.55;;;21.10;78.80;;;19.98;100.00;96013.22;5010995;28;20505;-67
2023/06/21 05:01:23;;;;;;;10.85;7.63;;;21.10;78.70;;;20.04;100.00;96019.44;5010430;28;20514;-67
2023/06/21 05:03:51;;;;;;;14.48;7.47;;;21.30;78.40;;;20.07;100.00;96022.41;4992651;28;20084;-67
2023/06/21 05:06:20;;;;;;;11.88;7.85;;;21.30;78.10;;;20.11;100.00;96020.03;5010403;28;20030;-67
2023/06/21 05:08:46;;;;;;;11.68;8.05;;;21.40;78.80;;;20.17;100.00;96025.19;5009460;28;20034;-67
2023/06/21 05:11:12;;;;;;;14.32;8.20;;;21.30;78.10;;;20.23;100.00;96030.59;5010542;28;20124;-68
2023/06/21 05:13:37;;;;;;;11.60;8.35;;;21.40;78.40;;;20.29;100.00;96034.91;4992436;28;20057;-67
2023/06/21 05:16:03;;;;;;;13.02;7.47;;;21.60;78.50;;;20.32;100.00;96037.06;4992704;28;20034;-67
2023/06/21 05:18:29;;;;;;;14.02;7.43;;;21.60;78.10;;;20.38;100.00;96039.56;5007902;28;20525;-67
2023/06/21 05:20:55;;;;;;;10.93;7.93;;;21.60;77.80;;;20.44;100.00;96043.13;5010566;28;20161;-67
2023/06/21 05:23:21;;;;;;;14.88;7.72;;;21.70;77.60;;;20.49;100.00;96041.28;4991277;28;20048;-67
2023/06/21 05:25:47;;;;;;;13.15;7.38;;;21.70;77.40;;;20.55;100.00;96046.69;5008369;28;20444;-67
2023/06/21 05:28:13;;;;;;;13.70;7.82;;;21.90;77.10;;;20.62;100.00;96056.13;5009289;28;20042;-68
2023/06/21 05:30:38;;;;;;;19.40;15.32;;;22.00;76.90;;;20.67;100.00;96058.84;4991249;28;20128;-67
2023/06/21 05:33:04;;;;;;;24.58;16.58;;;22.00;76.70;;;20.74;100.00;96061.31;5010443;28;20030;-67
2023/06/21 05:35:30;;;;;;;16.25;11.25;;;22.10;76.50;;;20.81;100.00;96064.56;4990993;28;20132;-67
2023/06/21 05:37:58;;;;;;;20.17;13.25;;;22.10;75.60;;;20.89;100.00;96063.31;5008494;28;20426;-68
2023/06/21 05:40:23;;;;;;;13.15;7.85;;;22.20;75.60;;;20.99;100.00;96066.06;5006953;28;20041;-67
2023/06/21 05:42:49;;;;;;;14.23;8.07;;;22.30;75.20;;;21.06;100.00;96064.00;4991269;28;20058;-68
2023/06/21 05:45:17;;;;;;;14.88;7.70;;;22.40;75.40;;;21.13;100.00;96071.78;5009707;28;20037;-68
2023/06/21 05:47:43;;;;;;;14.63;8.30;;;22.60;75.30;;;21.19;100.00;96066.22;4992005;28;20040;-67
2023/06/21 05:50:09;;;;;;;17.10;7.78;;;22.60;74.90;;;21.30;100.00;96073.31;4997244;28;20033;-68
2023/06/21 05:52:35;;;;;;;18.05;7.72;;;22.70;75.00;;;21.40;100.00;96068.00;4974621;28;20037;-67
2023/06/21 05:55:01;;;;;;;11.60;7.28;;;22.90;74.80;;;21.53;100.00;96076.66;5008549;28;20096;-67
2023/06/21 05:57:27;;;;;;;14.02;7.50;;;23.00;74.30;;;21.64;100.00;96078.31;5008427;28;20137;-68
2023/06/21 05:59:53;;;;;;;15.88;8.05;;;23.20;74.20;;;21.75;100.00;96090.72;5009412;28;20026;-67
2023/06/21 06:02:19;;;;;;;14.25;7.50;;;23.30;73.50;;;21.88;100.00;96090.22;5008377;28;20049;-67
2023/06/21 06:04:45;;;;;;;11.13;7.05;;;23.50;73.30;;;22.01;100.00;96095.13;5008098;28;20042;-67
2023/06/21 06:07:12;;;;;;;12.27;7.35;;;23.60;72.80;;;22.18;100.00;96104.84;5009647;28;20030;-67
2023/06/21 06:09:38;;;;;;;10.02;6.78;;;23.90;72.50;;;22.34;100.00;96103.84;5006581;28;20041;-67
2023/06/21 06:12:07;;;;;;;12.20;7.13;;;24.10;71.80;;;22.50;100.00;96107.38;4991082;28;20030;-68
2023/06/21 06:14:33;;;;;;;16.05;6.95;;;24.40;70.90;;;22.68;100.00;96114.13;5007763;28;20060;-67
2023/06/21 06:16:59;;;;;;;11.35;6.85;;;24.60;70.20;;;22.85;100.00;96114.72;5007426;28;20034;-67
2023/06/21 06:19:24;;;;;;;10.55;6.57;;;24.70;69.30;;;23.03;100.00;96116.09;4988511;28;20030;-68
2023/06/21 06:21:50;;;;;;;16.38;6.70;;;25.00;68.60;;;23.19;100.00;96120.41;5010078;28;20076;-67
2023/06/21 06:24:16;;;;;;;13.02;6.72;;;25.10;67.40;;;23.34;100.00;96122.28;5012173;28;20038;-68
2023/06/21 06:26:42;;;;;;;14.85;6.68;;;25.30;67.70;;;23.48;100.00;96110.72;5012166;28;20552;-68
2023/06/21 06:29:08;;;;;;;15.85;7.25;;;25.50;67.70;;;23.64;100.00;96118.78;5006365;28;20038;-69
2023/06/21 06:31:34;;;;;;;14.75;6.03;;;25.70;66.70;;;23.77;99.22;96132.47;5010795;28;20411;-68
2023/06/21 06:33:59;;;;;;;13.98;5.60;;;25.80;65.40;;;23.90;98.01;96138.34;5011987;28;20498;-67
2023/06/21 06:36:25;;;;;;;11.55;5.50;;;26.00;65.40;;;24.04;97.04;96142.06;5004919;28;20050;-67
2023/06/21 06:38:51;;;;;;;12.30;5.88;;;26.10;64.50;;;24.18;95.44;96137.72;5012080;28;20080;-69
2023/06/21 06:41:17;;;;;;;15.15;5.93;;;26.30;63.90;;;24.30;93.73;96132.88;5012057;28;20042;-67
2023/06/21 06:43:44;;;;;;;12.10;6.13;;;26.40;63.00;;;24.43;93.10;96129.56;5011091;28;20572;-68
2023/06/21 06:46:10;;;;;;;10.90;5.47;;;26.60;63.00;;;24.59;91.62;96137.59;4992149;28;20038;-68
2023/06/21 06:48:35;;;;;;;11.05;5.40;;;26.80;62.00;;;24.72;90.94;96135.09;4974333;28;20038;-68
2023/06/21 06:51:01;;;;;;;11.25;5.70;;;26.90;61.70;;;24.82;88.92;96146.88;5010922;28;20042;-68
2023/06/21 06:53:27;;;;;;;10.77;5.78;;;26.80;60.70;;;24.88;86.66;96151.13;4992060;28;20066;-67
2023/06/21 06:55:53;;;;;;;13.43;5.97;;;26.70;60.10;;;24.93;85.41;96160.00;4992474;28;20035;-68
2023/06/21 06:58:19;;;;;;;16.33;5.90;;;26.90;59.70;;;25.00;84.90;96147.06;5011895;28;20092;-68
2023/06/21 07:00:45;;;;;;;12.30;5.68;;;27.10;59.70;;;25.11;84.42;96144.28;5011289;28;20045;-67
2023/06/21 07:03:11;;;;;;;10.05;5.05;;;27.30;58.90;;;25.22;83.11;96159.31;4995396;28;20532;-67
2023/06/21 07:05:42;;;;;;;9.02;5.22;;;27.50;58.20;;;25.32;80.49;96157.31;4993078;28;20588;-68
2023/06/21 07:08:08;;;;;;;8.80;4.60;;;27.60;57.80;;;25.45;81.69;96161.28;4995284;28;20037;-67
2023/06/21 07:10:33;;;;;;;10.27;5.15;;;27.90;57.40;;;25.59;81.24;96156.88;5011361;28;20067;-67
2023/06/21 07:13:02;;;;;;;11.23;4.75;;;28.00;56.60;;;25.71;80.34;96156.50;5012803;28;20046;-68
2023/06/21 07:15:28;;;;;;;9.77;4.57;;;28.10;56.40;;;25.85;80.04;96151.25;5011029;28;20034;-68
2023/06/21 07:17:54;;;;;;;16.42;5.50;;;28.40;55.70;;;25.98;78.65;96155.16;4992146;28;20049;-68
2023/06/21 07:20:20;;;;;;;15.23;6.60;;;28.30;55.30;;;26.09;77.56;96154.78;5011345;28;20444;-68
2023/06/21 07:22:46;;;;;;;11.50;6.47;;;28.60;54.60;;;26.22;76.15;96158.66;4993536;28;20093;-68
2023/06/21 07:25:12;;;;;;;14.98;5.47;;;28.60;53.90;;;26.37;75.38;96155.03;5010988;28;20030;-68
2023/06/21 07:27:37;;;;;;;9.95;4.95;;;28.90;53.90;;;26.49;75.60;96150.84;4993192;28;20092;-68
2023/06/21 07:30:05;;;;;;;12.73;5.35;;;29.10;53.50;;;26.64;75.10;96139.03;5011207;28;20405;-68
2023/06/21 07:32:30;;;;;;;12.48;5.00;;;29.20;53.70;;;26.75;74.01;96129.72;5011120;28;20042;-67
2023/06/21 07:34:58;;;;;;;9.50;4.72;;;29.30;52.50;;;26.89;73.90;96137.09;5011852;28;20084;-68
2023/06/21 07:37:23;;;;;;;11.07;4.97;;;29.60;52.80;;;27.00;73.19;96130.50;5011069;28;20030;-68
2023/06/21 07:39:49;;;;;;;9.55;4.90;;;29.60;51.90;;;27.13;72.97;96137.84;4993584;28;20038;-68
2023/06/21 07:42:15;;;;;;;10.23;5.50;;;29.90;52.60;;;27.26;71.45;96134.41;5012195;28;20069;-68
2023/06/21 07:44:40;;;;;;;10.13;4.90;;;30.00;50.30;;;27.37;70.28;96138.53;4994183;28;20038;-68
2023/06/21 07:47:09;;;;;;;14.65;5.40;;;30.10;50.30;;;27.51;70.15;96140.50;5010937;28;20030;-65
2023/06/21 07:49:34;;;;;;;7.72;4.72;;;30.20;49.20;;;27.64;68.86;96134.38;5007476;28;20035;-68
2023/06/21 07:52:00;;;;;;;11.35;5.35;;;30.30;49.50;;;27.76;69.02;96132.78;4977115;28;20054;-68
2023/06/21 07:54:26;;;;;;;9.65;4.93;;;30.50;49.40;;;27.89;68.44;96123.09;5010696;28;20057;-68
2023/06/21 07:56:52;;;;;;;11.07;4.90;;;30.60;49.20;;;28.01;66.68;96123.41;4994203;28;20030;-68
2023/06/21 07:59:17;;;;;;;15.90;5.45;;;30.70;48.10;;;28.11;66.41;96127.03;5010467;28;20030;-68
2023/06/21 08:01:43;;;;;;;12.82;5.53;;;30.70;48.10;;;28.21;66.02;96122.22;4993707;28;20041;-68
2023/06/21 08:04:09;;;;;;;11.50;4.93;;;31.00;48.70;;;28.33;65.25;96119.03;5011769;28;20042;-68
2023/06/21 08:06:34;;;;;;;14.27;4.95;;;31.00;47.40;;;28.43;65.08;96123.44;5010208;28;20468;-68
2023/06/21 08:09:00;;;;;;;13.77;5.55;;;31.10;47.40;;;28.56;65.26;96128.03;4992914;28;20042;-68
2023/06/21 08:11:26;;;;;;;9.15;4.78;;;31.30;48.30;;;28.66;64.24;96125.09;5011780;28;20042;-69
2023/06/21 08:13:52;;;;;;;15.27;5.65;;;31.40;47.10;;;28.77;63.95;96123.00;5008370;28;20093;-68
2023/06/21 08:16:17;;;;;;;11.43;5.28;;;31.40;47.20;;;28.87;63.80;96122.78;5010196;28;20061;-69
2023/06/21 08:18:43;;;;;;;13.57;7.70;;;31.60;47.30;;;29.00;63.50;96121.16;4994029;28;20084;-68
2023/06/21 08:21:09;;;;;;;12.30;5.38;;;31.80;47.10;;;29.13;63.64;96115.69;4994024;28;20034;-69
2023/06/21 08:23:34;;;;;;;9.93;5.03;;;32.00;46.80;;;29.27;63.09;96108.31;5009484;28;20107;-67
2023/06/21 08:26:00;;;;;;;8.52;5.82;;;32.30;46.20;;;29.43;62.47;96113.38;5011457;28;20068;-69
2023/06/21 08:28:27;;;;;;;9.48;5.25;;;32.50;45.60;;;29.61;63.08;96115.06;4993788;28;20095;-69
2023/06/21 08:30:52;;;;;;;12.35;4.65;;;32.70;46.90;;;29.81;61.53;96111.03;4992049;28;20056;-68
2023/06/21 08:33:18;;;;;;;9.63;5.13;;;32.90;44.00;;;29.93;59.97;96110.47;5011134;28;20401;-68
2023/06/21 08:35:44;;;;;;;7.88;5.03;;;32.90;43.30;;;30.03;59.01;96110.19;5008936;28;20029;-68
2023/06/21 08:38:09;;;;;;;10.50;6.00;;;33.00;43.30;;;30.17;58.98;96105.50;5011123;28;20080;-69
2023/06/21 08:40:38;;;;;;;9.50;5.57;;;33.10;43.90;;;30.26;59.13;96109.03;5009652;28;20092;-68
2023/06/21 08:43:04;;;;;;;8.95;5.43;;;33.10;43.80;;;30.41;59.17;96105.88;4993996;28;20034;-69
2023/06/21 08:45:30;;;;;;;9.65;5.25;;;33.50;44.80;;;30.61;59.26;96109.16;4992975;28;20045;-68
2023/06/21 08:48:03;;;;;;;11.25;5.18;;;33.70;43.90;;;30.76;56.66;96095.09;5008987;28;20037;-68
2023/06/21 08:50:29;;;;;;;7.97;5.07;;;33.70;42.80;;;30.91;57.58;96108.22;5005794;28;20418;-68
2023/06/21 08:52:54;;;;;;;10.38;5.28;;;34.10;42.90;;;31.12;57.10;96108.41;5010676;28;20025;-68
2023/06/21 08:55:23;;;;;;;9.25;5.45;;;34.30;41.30;;;31.30;56.47;96109.22;4992967;28;20042;-68
2023/06/21 08:58:01;;;;;;;9.45;5.18;;;34.40;40.90;;;31.48;54.96;96105.38;5010283;28;20089;-69
2023/06/21 09:00:34;;;;;;;7.50;5.00;;;34.60;41.80;;;31.72;54.49;96109.50;5005616;28;20026;-68
2023/06/21 09:03:18;;;;;;;8.88;5.53;;;34.80;42.10;;;31.99;54.34;96109.88;4990993;28;20030;-68
2023/06/21 09:06:00;;;;;;;9.15;5.18;;;35.00;41.40;;;32.25;52.25;96104.34;4996700;28;20115;-68
2023/06/21 09:08:25;;;;;;;9.15;5.38;;;35.40;40.00;;;32.42;54.30;96116.28;4989511;28;20730;-69
2023/06/21 09:10:52;;;;;;;6.95;5.18;;;35.50;40.10;;;32.68;53.43;96113.41;4992125;28;20059;-69
2023/06/21 09:13:22;;;;;;;7.47;4.95;;;35.80;40.30;;;32.91;51.61;96103.84;5003818;28;20038;-68
2023/06/21 09:15:50;;;;;;;10.27;5.35;;;36.00;39.70;;;33.15;52.50;96116.78;5008239;28;20060;-69
2023/06/21 09:18:16;;;;;;;12.80;5.50;;;36.30;39.20;;;33.38;51.99;96130.91;4990862;28;20564;-68
2023/06/21 09:20:47;;;;;;;8.50;5.00;;;36.60;38.40;;;33.62;49.61;96122.81;4956064;28;20042;-69
2023/06/21 09:23:13;;;;;;;8.18;5.15;;;36.80;38.40;;;33.91;50.67;96132.78;4986056;28;20541;-68
2023/06/21 09:25:39;;;;;;;9.85;4.78;;;37.10;38.10;;;34.15;49.32;96126.56;4988788;28;20450;-68
2023/06/21 09:28:05;;;;;;;7.90;4.70;;;37.20;37.00;;;34.32;47.66;96120.09;4973468;28;20069;-68
2023/06/21 09:30:31;;;;;;;12.55;5.45;;;37.40;35.60;;;34.49;46.93;96108.19;4973260;28;20041;-68
2023/06/21 09:32:57;;;;;;;8.52;5.10;;;37.50;35.20;;;34.62;46.07;96096.88;4973243;28;20041;-69
2023/06/21 09:35:24;;;;;;;13.65;8.50;;;37.60;35.20;;;34.80;46.08;96096.63;4985963;28;20571;-68
2023/06/21 09:37:49;;;;;;;8.13;5.10;;;37.80;35.50;;;34.93;45.00;96084.56;4985485;28;20049;-68
2023/06/21 09:40:15;;;;;;;8.55;5.13;;;38.00;34.40;;;35.02;44.63;96082.50;4990005;28;20398;-68
2023/06/21 09:42:42;;;;;;;12.70;5.22;;;38.00;34.00;;;35.13;44.95;96072.66;4973031;28;20038;-68
2023/06/21 09:45:18;;;;;;;6.60;4.47;;;38.20;34.60;;;35.38;43.88;96064.38;4948809;28;20026;-68
2023/06/21 09:47:44;;;;;;;8.10;4.65;;;38.60;35.20;;;35.57;43.75;96045.34;4988771;28;20026;-69
2023/06/21 09:50:10;;;;;;;7.93;5.10;;;38.70;33.90;;;35.77;43.56;96058.00;4973043;28;20038;-68
2023/06/21 09:52:36;;;;;;;12.38;5.35;;;39.00;34.60;;;35.82;42.46;96049.53;4971460;28;20033;-69
2023/06/21 09:55:02;;;;;;;9.95;5.32;;;38.80;32.20;;;35.92;41.70;96047.44;4987580;28;20409;-68
2023/06/21 09:57:29;;;;;;;9.93;5.30;;;38.90;32.30;;;36.12;41.69;96060.84;4988636;28;20407;-69
2023/06/21 09:59:55;;;;;;;13.13;5.78;;;39.60;33.00;;;36.22;41.16;96054.06;4988446;28;20041;-69
2023/06/21 10:02:21;;;;;;;10.20;5.63;;;39.30;31.30;;;36.10;40.01;96065.09;4990307;28;20034;-68
2023/06/21 10:04:47;;;;;;;11.35;5.45;;;38.70;32.50;;;35.95;41.14;96085.03;4972308;28;20073;-69
2023/06/21 10:07:14;;;;;;;11.57;5.47;;;38.30;34.50;;;35.69;41.49;96110.94;4973010;28;20046;-68
2023/06/21 10:09:40;;;;;;;8.60;4.53;;;37.50;35.30;;;35.34;41.39;96120.91;4989576;28;20058;-68